Logo AVAMET
Benvolgut visitant, si us plau, ingressa Recuperar contrasenya

Castelló de Rugat

Dades diàries. Acumulats / Últims 30 dies disponibles

Data Temperatura (°C) Humitat rel. (%) Pressió rel. (hPa) Vent (km/h) Precipitació
Mínima Mitjana Màxima Amplitud
tèrmica
Mínima Mitjana Màxima Mínima Mitjana Màxima Predom. Mitjana Ràfega
màxima
Total
(mm)
Índex-n
Mínima Mitjana Màxima Mínima Mitjana Màxima n
0 a 1
P0 max
mm 5'
Dades mensuals acumulades fins l'últim dia disponible
11/2019 4,3 9,9 19,1 13,6 14,3 18,3 25,9 21,6 30 61 92 1.000 1.011 1.020   4,3 46,7 16,0
Dades anuals acumulades fins l'últim dia disponible
2019 -0,3 13,5 25,3 18,0 11,1 23,4 41,5 41,8 2 67 100 0 1.015 1.031   5,7 78,9 664,3
Últims 30 dies disponibles
21-11-2019 7,9     11,7     15,9 8,0 61 74 90 1.008 1.009 1.010 SO 3,0 22,5 0,4
20-11-2019 6,7     10,9     16,6 9,9 41 64 91 1.009 1.011 1.015 WSW 2,6 20,9 2,8 0,20
19-11-2019 4,3     9,6     15,5 11,2 41 58 73 1.014 1.016 1.018 SW 2,3 19,3 0,0
18-11-2019 7,3     10,3     15,4 8,1 52 71 92 1.007 1.011 1.016 SW 1,9 22,5 3,2 0,26 0,40
17-11-2019 6,4     10,6     15,3 8,9 45 60 90 1.010 1.013 1.015 SW 4,8 33,8 4,0 0,21 0,60
16-11-2019 4,7     9,3     14,9 10,2 40 59 75 1.007 1.011 1.015 SW 2,1 16,1 0,0
15-11-2019 7,6     10,1     14,3 6,7 44 60 70 1.001 1.003 1.007 SW 4,2 27,4 0,0
14-11-2019 7,4     12,6     16,7 9,3 54 64 82 1.000 1.002 1.010 SW 5,3 33,8 0,2
13-11-2019 11,4     14,2     17,4 6,0 54 71 87 1.005 1.008 1.011 SW 4,8 35,4 2,4 0,20
12-11-2019 7,9     12,5     18,5 10,6 35 52 69 1.009 1.012 1.014 SW 2,6 25,7 0,0
11-11-2019 6,2     11,1     16,4 10,2 43 59 69 1.011 1.013 1.015 SSW 1,9 16,1 0,0
10-11-2019 7,9     11,3     15,4 7,5 44 64 89 1.011 1.013 1.014 SW 4,5 25,7 1,8 0,20
09-11-2019 8,4     12,7     18,1 9,7 33 54 83 1.014 1.017 1.020 SW 5,1 29,0 1,2 0,37 0,40
08-11-2019 8,3     11,9     16,0 7,7 40 52 67 1.010 1.013 1.017 SW 4,7 24,1 0,0
07-11-2019 11,4     15,0     20,2 8,8 30 57 68 1.008 1.010 1.014 SW 6,4 32,2 0,0
06-11-2019 10,8     14,7     20,2 9,4 36 55 68 1.012 1.013 1.015 SW 4,0 25,7 0,0
05-11-2019 13,0     15,8     18,8 5,8 43 57 70 1.006 1.009 1.013 SW 6,3 30,6 0,0
04-11-2019 16,2     19,3     23,7 7,5 47 58 70 1.006 1.009 1.012 SW 7,2 41,8 0,0
03-11-2019 16,2     19,1     23,2 7,0 51 58 68 1.001 1.005 1.011 SW 7,1 46,7 0,0
02-11-2019 19,1     21,2     25,4 6,3 45 61 71 1.004 1.009 1.014 SW 5,3 27,4 0,0
01-11-2019 18,0     21,5     25,9 7,9 53 66 77 1.014 1.017 1.020 SW 3,2 25,7 0,0
31-10-2019 17,7     21,2     26,1 8,4 50 64 77 1.019 1.020 1.021 SSO 2,5 17,7 0,0
30-10-2019 14,6     19,9     25,5 10,9 52 67 82 1.019 1.020 1.021 WSW 1,9 9,7 0,0
29-10-2019 15,6     19,9     26,7 11,1 46 69 84 1.015 1.016 1.019 WSW 1,9 12,9 0,0
28-10-2019 11,9     16,9     21,4 9,5 66 83 98 1.016 1.017 1.020 SW 1,3 9,7 0,4
27-10-2019 12,4     16,5     21,7 9,3 69 87 96 1.019 1.021 1.022 NE 3,2 20,9 0,2
26-10-2019 12,4     17,1     21,8 9,4 57 72 92 1.019 1.021 1.022 NE 3,7 20,9 0,0
25-10-2019 12,4     17,4     24,0 11,6 35 60 75 1.020 1.022 1.023 WSW 2,1 12,9 0,0
24-10-2019 10,8     15,0     20,3 9,5 50 66 79 1.011 1.016 1.022 SW 3,1 25,7 0,0
23-10-2019 10,4     13,3     18,8 8,4 48 71 88 1.005 1.008 1.012 SW 4,3 29,0 0,0
Últims 13 mesos disponibles
10/2019 10,4 15,2 18,8 19,4 14,3 24,6 33,3 22,9 41 66 91 1.008 1.016 1.022 SW 3,3 40,2 49,0
09/2019 12,7 18,7 21,5 22,5 19,4 27,0 33,2 20,5 45 79 96 1.009 1.016 1.023 NE 5,5 78,9 158,8
08/2019 16,9 20,7 25,3 25,5 25,7 31,5 41,5 24,6 18 77 95 1.010 1.014 1.017 S 6,6 48,1 42,1
07/2019 19,3 21,0 24,9 26,1 26,2 31,3 38,4 19,1 9 71 92 978 1.012 1.019 SE 8,6 72,9 0,5
06/2019 11,7 16,7 21,5 22,1 20,0 27,9 34,8 23,1 25 66 92 1.008 1.014 1.019 SE 6,8 40,7 0,0
05/2019 8,5 13,4 19,1 18,1 17,2 23,3 30,6 22,1 49 73 94 1.004 1.013 1.022 SE 6,2 40,7 9,7
04/2019 7,1 10,4 13,4 14,2 11,5 18,8 28,1 21,0 23 75 100 997 1.010 1.021 S 6,4 52,2 316,9
03/2019 4,8 9,0 15,3 13,8 11,7 19,3 27,6 22,8 12 54 99 1.008 1.020 1.026 SE 5,4 39,6 67,3
02/2019 1,4 6,6 11,8 11,5 11,7 17,3 23,8 22,4 12 63 97 995 1.021 1.029 S 5,0 43,1 0,0
01/2019 -0,3 5,8 11,0 10,3 11,1 16,0 20,8 21,1 29 57 90 1.001 1.016 1.027 S 3,9 37,0 4,0
12/2018 4,2 8,5 13,8 12,6 11,6 17,9 24,9 20,7 32 70 99 989 1.019 1.027 SSO 3,2 24,8 27,1
11/2018 6,2 10,3 14,1 13,4 12,4 17,2 24,4 18,2 17 77 99 1.001 1.014 1.020 SSO 3,7 31,5 187,3
10/2018 5,4 13,7 17,9 17,2 13,3 21,6 30,7 25,3 52 80 97 999 1.014 1.022 4,3 41,3 88,8
Tots els anys disponibles
2018 0,6 13,2 24,5 17,4 5,3 22,3 37,0 36,4 17 70 100 989 1.015 1.031 SE 5,0 74,0 662,4
2017 -1,5 13,1 28,7 17,8 4,8 22,4 38,0 39,5 20 68 99 997 1.018 1.032 S 0,1 73,0 540,1
2016 1,3 13,1 25,8 17,7 7,0 22,3 40,4 39,1 17 63 100 995 1.017 1.034 72,0 909,9
2015 2,4 14,4 27,7 19,1 8,7 23,8 42,2 39,8 11 63 97 1.006 1.019 1.033 69,0 411,1
Temperatura (°C)
Humitat relativa (%)
Velocitat del vent i ràfega màxima (km/h)
Direcció del vent (°)
Pressió (hPa)
Precipitació (mm)
Nota sobre les dades: s'avisa a l'usuari de la provisionalitat i no oficialitat d'aquestes dades
Logo AVAMET blanc
Web allotjada a Sollutia
Llicència de Creative CommonsLa web d'AVAMET i els seus continguts estan subjectes a una llicència de
Reconeixement - No Comercial - Compartir igual
Últimes estacions: Faura (Inforatge), Benifairó de les Valls (Inforatge), Xàbia - Les Valls (Soci), Xàbia - Alt de la Granadella (Soci), Villena - Sierra de Salinas (Soci), Sueca - Centre (Inforatge) - - -